Terminal Aerodrome Forecast
Issued by NWS

Home | Current Version | Previous Version | Text Only | Print | Product List | Glossary On
Versions: 1 2 3 4 5 6 7 8 9 10 11 12 13 14
711
FTUS45 KTFX 272138 AAB
TAFLWT
TAF AMD
KLWT 272138Z 2722/2818 30007KT P6SM VCTS SCT080CB BKN250
      TEMPO 2722/2724 VRB15G30KT -TSRA BKN070CB
     FM280000 21005KT P6SM SCT080 SCT200=

USA.gov is the U.S. government's official web portal to all federal, state and local government web resources and services.